sensor_id;sensor_type;location;lat;lon;timestamp;temperature;humidity
72206;DHT22;60111;48.286;7.812;2022-08-04T00:01:45;22.60;78.20
72206;DHT22;60111;48.286;7.812;2022-08-04T00:04:36;22.60;77.70
72206;DHT22;60111;48.286;7.812;2022-08-04T00:07:29;22.60;77.90
72206;DHT22;60111;48.286;7.812;2022-08-04T00:10:02;22.70;78.00
72206;DHT22;60111;48.286;7.812;2022-08-04T00:12:37;22.60;77.50
72206;DHT22;60111;48.286;7.812;2022-08-04T00:15:14;22.60;75.70
72206;DHT22;60111;48.286;7.812;2022-08-04T00:18:06;22.50;76.80
72206;DHT22;60111;48.286;7.812;2022-08-04T00:20:39;22.50;77.90
72206;DHT22;60111;48.286;7.812;2022-08-04T00:23:13;22.40;77.90
72206;DHT22;60111;48.286;7.812;2022-08-04T00:25:46;22.30;79.10
72206;DHT22;60111;48.286;7.812;2022-08-04T00:28:19;22.20;79.80
72206;DHT22;60111;48.286;7.812;2022-08-04T00:30:53;22.20;80.00
72206;DHT22;60111;48.286;7.812;2022-08-04T00:33:26;22.20;80.20
72206;DHT22;60111;48.286;7.812;2022-08-04T00:36:00;22.10;80.80
72206;DHT22;60111;48.286;7.812;2022-08-04T00:38:32;21.90;81.20
72206;DHT22;60111;48.286;7.812;2022-08-04T00:41:26;21.90;81.20
72206;DHT22;60111;48.286;7.812;2022-08-04T00:46:58;21.80;81.40
72206;DHT22;60111;48.286;7.812;2022-08-04T00:49:38;21.80;82.00
72206;DHT22;60111;48.286;7.812;2022-08-04T00:55:26;21.70;82.30
72206;DHT22;60111;48.286;7.812;2022-08-04T01:01:04;21.60;82.40
72206;DHT22;60111;48.286;7.812;2022-08-04T01:04:08;21.60;83.20
72206;DHT22;60111;48.286;7.812;2022-08-04T01:09:30;21.40;83.60
72206;DHT22;60111;48.286;7.812;2022-08-04T01:12:09;21.40;83.30
72206;DHT22;60111;48.286;7.812;2022-08-04T01:17:36;21.50;81.80
72206;DHT22;60111;48.286;7.812;2022-08-04T01:20:08;21.50;81.90
72206;DHT22;60111;48.286;7.812;2022-08-04T01:26:00;21.50;81.90
72206;DHT22;60111;48.286;7.812;2022-08-04T01:31:25;21.40;83.10
72206;DHT22;60111;48.286;7.812;2022-08-04T01:33:59;21.30;83.50
72206;DHT22;60111;48.286;7.812;2022-08-04T01:36:34;21.30;83.90
72206;DHT22;60111;48.286;7.812;2022-08-04T01:39:07;21.30;84.30
72206;DHT22;60111;48.286;7.812;2022-08-04T01:41:41;21.30;83.60
72206;DHT22;60111;48.286;7.812;2022-08-04T01:44:14;21.30;83.20
72206;DHT22;60111;48.286;7.812;2022-08-04T01:46:49;21.30;83.10
72206;DHT22;60111;48.286;7.812;2022-08-04T01:49:27;21.20;82.40
72206;DHT22;60111;48.286;7.812;2022-08-04T01:51:59;21.10;83.20
72206;DHT22;60111;48.286;7.812;2022-08-04T01:54:36;21.10;84.50
72206;DHT22;60111;48.286;7.812;2022-08-04T01:57:10;21.10;84.30
72206;DHT22;60111;48.286;7.812;2022-08-04T01:59:45;21.10;83.80
72206;DHT22;60111;48.286;7.812;2022-08-04T02:02:21;21.10;84.00
72206;DHT22;60111;48.286;7.812;2022-08-04T02:04:55;21.10;83.50
72206;DHT22;60111;48.286;7.812;2022-08-04T02:07:46;21.20;81.70
72206;DHT22;60111;48.286;7.812;2022-08-04T02:10:26;21.10;82.90
72206;DHT22;60111;48.286;7.812;2022-08-04T02:16:01;21.10;80.60
72206;DHT22;60111;48.286;7.812;2022-08-04T02:21:30;21.10;82.00
72206;DHT22;60111;48.286;7.812;2022-08-04T02:24:06;21.10;81.90
72206;DHT22;60111;48.286;7.812;2022-08-04T02:26:41;21.00;81.90
72206;DHT22;60111;48.286;7.812;2022-08-04T02:29:28;21.00;81.50
72206;DHT22;60111;48.286;7.812;2022-08-04T02:32:09;21.00;81.70
72206;DHT22;60111;48.286;7.812;2022-08-04T02:34:50;21.00;81.40
72206;DHT22;60111;48.286;7.812;2022-08-04T02:37:21;21.10;81.20
72206;DHT22;60111;48.286;7.812;2022-08-04T02:39:58;21.10;81.40
72206;DHT22;60111;48.286;7.812;2022-08-04T02:42:32;21.00;81.00
72206;DHT22;60111;48.286;7.812;2022-08-04T02:45:06;21.00;81.10
72206;DHT22;60111;48.286;7.812;2022-08-04T02:47:39;20.90;81.70
72206;DHT22;60111;48.286;7.812;2022-08-04T02:50:13;20.90;82.00
72206;DHT22;60111;48.286;7.812;2022-08-04T02:52:49;20.90;81.20
72206;DHT22;60111;48.286;7.812;2022-08-04T02:55:25;20.90;81.30
72206;DHT22;60111;48.286;7.812;2022-08-04T02:58:01;20.90;81.90
72206;DHT22;60111;48.286;7.812;2022-08-04T03:00:36;20.90;82.40
72206;DHT22;60111;48.286;7.812;2022-08-04T03:35:31;20.30;85.60
72206;DHT22;60111;48.286;7.812;2022-08-04T03:52:12;20.40;85.10
72206;DHT22;60111;48.286;7.812;2022-08-04T04:01:09;20.60;83.30
72206;DHT22;60111;48.286;7.812;2022-08-04T04:07:05;20.70;82.30
72206;DHT22;60111;48.286;7.812;2022-08-04T04:15:19;20.60;83.10
72206;DHT22;60111;48.286;7.812;2022-08-04T04:18:14;20.60;82.60
72206;DHT22;60111;48.286;7.812;2022-08-04T04:20:52;20.60;81.50
72206;DHT22;60111;48.286;7.812;2022-08-04T04:23:44;20.60;82.00
72206;DHT22;60111;48.286;7.812;2022-08-04T04:29:29;20.50;83.60
72206;DHT22;60111;48.286;7.812;2022-08-04T04:32:23;20.40;84.70
72206;DHT22;60111;48.286;7.812;2022-08-04T04:41:04;20.20;85.20
72206;DHT22;60111;48.286;7.812;2022-08-04T04:43:46;20.20;85.50
72206;DHT22;60111;48.286;7.812;2022-08-04T04:49:02;20.10;86.20
72206;DHT22;60111;48.286;7.812;2022-08-04T04:51:42;20.10;86.70
72206;DHT22;60111;48.286;7.812;2022-08-04T04:56:59;20.00;86.70
72206;DHT22;60111;48.286;7.812;2022-08-04T04:59:37;20.00;86.70
72206;DHT22;60111;48.286;7.812;2022-08-04T05:08:26;20.00;87.30
72206;DHT22;60111;48.286;7.812;2022-08-04T05:11:22;20.10;87.00
72206;DHT22;60111;48.286;7.812;2022-08-04T05:13:59;20.00;87.20
72206;DHT22;60111;48.286;7.812;2022-08-04T05:16:40;20.00;86.80
72206;DHT22;60111;48.286;7.812;2022-08-04T05:22:03;20.20;86.50
72206;DHT22;60111;48.286;7.812;2022-08-04T05:24:39;20.20;86.20
72206;DHT22;60111;48.286;7.812;2022-08-04T05:27:24;20.20;86.00
72206;DHT22;60111;48.286;7.812;2022-08-04T05:29:54;20.30;85.70
72206;DHT22;60111;48.286;7.812;2022-08-04T05:32:30;20.40;85.40
72206;DHT22;60111;48.286;7.812;2022-08-04T05:35:08;20.50;85.30
72206;DHT22;60111;48.286;7.812;2022-08-04T05:37:42;20.60;84.40
72206;DHT22;60111;48.286;7.812;2022-08-04T05:40:17;20.70;84.10
72206;DHT22;60111;48.286;7.812;2022-08-04T05:42:51;20.90;82.50
72206;DHT22;60111;48.286;7.812;2022-08-04T05:45:26;20.90;83.60
72206;DHT22;60111;48.286;7.812;2022-08-04T05:48:06;21.00;84.60
72206;DHT22;60111;48.286;7.812;2022-08-04T05:50:35;21.10;83.30
72206;DHT22;60111;48.286;7.812;2022-08-04T05:53:09;21.20;82.70
72206;DHT22;60111;48.286;7.812;2022-08-04T05:55:42;21.30;81.50
72206;DHT22;60111;48.286;7.812;2022-08-04T05:58:15;21.50;81.30
72206;DHT22;60111;48.286;7.812;2022-08-04T06:00:50;21.60;80.90
72206;DHT22;60111;48.286;7.812;2022-08-04T06:03:26;21.90;79.90
72206;DHT22;60111;48.286;7.812;2022-08-04T06:05:59;22.00;79.10
72206;DHT22;60111;48.286;7.812;2022-08-04T06:08:33;22.20;78.60
72206;DHT22;60111;48.286;7.812;2022-08-04T06:11:07;22.40;78.90
72206;DHT22;60111;48.286;7.812;2022-08-04T06:13:58;22.70;78.20
72206;DHT22;60111;48.286;7.812;2022-08-04T06:16:34;22.90;77.50
72206;DHT22;60111;48.286;7.812;2022-08-04T06:19:10;23.10;77.30
72206;DHT22;60111;48.286;7.812;2022-08-04T06:21:44;23.30;76.30
72206;DHT22;60111;48.286;7.812;2022-08-04T06:24:22;23.40;77.20
72206;DHT22;60111;48.286;7.812;2022-08-04T06:26:54;23.50;75.90
72206;DHT22;60111;48.286;7.812;2022-08-04T06:29:28;23.70;75.50
72206;DHT22;60111;48.286;7.812;2022-08-04T06:32:07;23.80;75.80
72206;DHT22;60111;48.286;7.812;2022-08-04T06:34:47;23.90;76.20
72206;DHT22;60111;48.286;7.812;2022-08-04T06:37:20;24.10;75.40
72206;DHT22;60111;48.286;7.812;2022-08-04T06:39:53;24.30;74.80
72206;DHT22;60111;48.286;7.812;2022-08-04T06:42:28;24.40;75.30
72206;DHT22;60111;48.286;7.812;2022-08-04T06:45:02;24.60;74.50
72206;DHT22;60111;48.286;7.812;2022-08-04T06:47:41;24.70;73.40
72206;DHT22;60111;48.286;7.812;2022-08-04T06:50:14;24.90;72.60
72206;DHT22;60111;48.286;7.812;2022-08-04T06:52:47;25.10;71.60
72206;DHT22;60111;48.286;7.812;2022-08-04T06:55:20;25.20;70.20
72206;DHT22;60111;48.286;7.812;2022-08-04T06:57:55;25.40;69.70
72206;DHT22;60111;48.286;7.812;2022-08-04T07:00:30;25.60;69.10
72206;DHT22;60111;48.286;7.812;2022-08-04T07:03:03;25.70;68.20
72206;DHT22;60111;48.286;7.812;2022-08-04T07:05:38;25.90;67.40
72206;DHT22;60111;48.286;7.812;2022-08-04T07:08:11;26.00;66.50
72206;DHT22;60111;48.286;7.812;2022-08-04T07:10:44;26.10;64.80
72206;DHT22;60111;48.286;7.812;2022-08-04T07:13:18;26.30;63.40
72206;DHT22;60111;48.286;7.812;2022-08-04T07:15:51;26.40;62.90
72206;DHT22;60111;48.286;7.812;2022-08-04T07:18:26;26.60;62.80
72206;DHT22;60111;48.286;7.812;2022-08-04T07:20:58;26.70;62.30
72206;DHT22;60111;48.286;7.812;2022-08-04T07:23:31;26.90;61.90
72206;DHT22;60111;48.286;7.812;2022-08-04T07:26:04;27.00;61.60
72206;DHT22;60111;48.286;7.812;2022-08-04T07:28:36;27.20;61.00
72206;DHT22;60111;48.286;7.812;2022-08-04T07:31:13;27.20;61.50
72206;DHT22;60111;48.286;7.812;2022-08-04T07:33:46;27.30;60.90
72206;DHT22;60111;48.286;7.812;2022-08-04T07:36:19;27.40;60.40
72206;DHT22;60111;48.286;7.812;2022-08-04T07:38:52;27.50;60.20
72206;DHT22;60111;48.286;7.812;2022-08-04T07:41:25;27.70;59.30
72206;DHT22;60111;48.286;7.812;2022-08-04T07:43:58;27.80;59.80
72206;DHT22;60111;48.286;7.812;2022-08-04T07:46:31;27.90;58.40
72206;DHT22;60111;48.286;7.812;2022-08-04T07:49:04;28.00;59.60
72206;DHT22;60111;48.286;7.812;2022-08-04T07:51:38;28.20;58.00
72206;DHT22;60111;48.286;7.812;2022-08-04T07:54:11;28.40;57.40
72206;DHT22;60111;48.286;7.812;2022-08-04T07:56:44;28.40;56.70
72206;DHT22;60111;48.286;7.812;2022-08-04T07:59:19;28.50;55.70
72206;DHT22;60111;48.286;7.812;2022-08-04T08:01:52;28.60;56.80
72206;DHT22;60111;48.286;7.812;2022-08-04T08:04:27;28.80;55.50
72206;DHT22;60111;48.286;7.812;2022-08-04T08:07:00;28.90;54.40
72206;DHT22;60111;48.286;7.812;2022-08-04T08:09:33;28.90;54.10
72206;DHT22;60111;48.286;7.812;2022-08-04T08:15:16;29.20;53.20
72206;DHT22;60111;48.286;7.812;2022-08-04T08:17:50;29.30;51.70
72206;DHT22;60111;48.286;7.812;2022-08-04T08:20:23;29.40;51.90
72206;DHT22;60111;48.286;7.812;2022-08-04T08:22:57;29.50;52.20
72206;DHT22;60111;48.286;7.812;2022-08-04T08:25:31;29.60;53.20
72206;DHT22;60111;48.286;7.812;2022-08-04T08:28:05;29.70;52.50
72206;DHT22;60111;48.286;7.812;2022-08-04T08:30:37;29.90;51.20
72206;DHT22;60111;48.286;7.812;2022-08-04T08:33:12;29.90;51.30
72206;DHT22;60111;48.286;7.812;2022-08-04T08:35:59;30.00;50.70
72206;DHT22;60111;48.286;7.812;2022-08-04T08:41:54;30.30;49.60
72206;DHT22;60111;48.286;7.812;2022-08-04T08:50:47;30.60;48.70
72206;DHT22;60111;48.286;7.812;2022-08-04T09:08:25;31.50;48.50
72206;DHT22;60111;48.286;7.812;2022-08-04T09:11:14;31.70;48.10
72206;DHT22;60111;48.286;7.812;2022-08-04T09:13:53;31.80;48.50
72206;DHT22;60111;48.286;7.812;2022-08-04T09:19:14;32.10;46.10
72206;DHT22;60111;48.286;7.812;2022-08-04T09:22:08;32.10;46.50
72206;DHT22;60111;48.286;7.812;2022-08-04T09:24:53;32.10;45.70
72206;DHT22;60111;48.286;7.812;2022-08-04T09:27:42;32.20;46.90
72206;DHT22;60111;48.286;7.812;2022-08-04T09:30:31;32.50;46.60
72206;DHT22;60111;48.286;7.812;2022-08-04T09:36:50;32.80;44.40
72206;DHT22;60111;48.286;7.812;2022-08-04T09:38:41;32.80;45.00
72206;DHT22;60111;48.286;7.812;2022-08-04T09:41:29;32.80;45.50
72206;DHT22;60111;48.286;7.812;2022-08-04T09:44:27;32.90;45.00
72206;DHT22;60111;48.286;7.812;2022-08-04T09:47:23;33.00;43.60
72206;DHT22;60111;48.286;7.812;2022-08-04T09:49:57;33.00;43.20
72206;DHT22;60111;48.286;7.812;2022-08-04T09:58:56;33.50;44.10
72206;DHT22;60111;48.286;7.812;2022-08-04T10:01:29;33.70;43.70
72206;DHT22;60111;48.286;7.812;2022-08-04T10:04:07;34.00;43.00
72206;DHT22;60111;48.286;7.812;2022-08-04T10:10:00;34.00;41.20
72206;DHT22;60111;48.286;7.812;2022-08-04T10:22:00;34.50;38.70
72206;DHT22;60111;48.286;7.812;2022-08-04T10:27:44;34.90;33.20
72206;DHT22;60111;48.286;7.812;2022-08-04T10:30:13;35.00;37.60
72206;DHT22;60111;48.286;7.812;2022-08-04T10:33:19;35.20;36.20
72206;DHT22;60111;48.286;7.812;2022-08-04T10:36:02;35.40;33.10
72206;DHT22;60111;48.286;7.812;2022-08-04T10:41:26;35.50;33.70
72206;DHT22;60111;48.286;7.812;2022-08-04T10:44:33;35.60;33.40
72206;DHT22;60111;48.286;7.812;2022-08-04T10:47:07;35.70;31.20
72206;DHT22;60111;48.286;7.812;2022-08-04T10:49:58;35.90;29.90
72206;DHT22;60111;48.286;7.812;2022-08-04T10:55:19;36.10;29.20
72206;DHT22;60111;48.286;7.812;2022-08-04T10:58:03;36.30;28.30
72206;DHT22;60111;48.286;7.812;2022-08-04T11:00:37;36.40;30.00
72206;DHT22;60111;48.286;7.812;2022-08-04T11:05:57;36.50;29.50
72206;DHT22;60111;48.286;7.812;2022-08-04T11:08:38;36.40;30.30
72206;DHT22;60111;48.286;7.812;2022-08-04T11:11:22;36.50;29.60
72206;DHT22;60111;48.286;7.812;2022-08-04T11:14:07;36.60;30.40
72206;DHT22;60111;48.286;7.812;2022-08-04T11:16:48;36.80;29.10
72206;DHT22;60111;48.286;7.812;2022-08-04T11:22:26;37.10;30.10
72206;DHT22;60111;48.286;7.812;2022-08-04T11:25:20;37.20;30.30
72206;DHT22;60111;48.286;7.812;2022-08-04T11:28:14;37.30;29.70
72206;DHT22;60111;48.286;7.812;2022-08-04T11:31:07;37.50;28.80
72206;DHT22;60111;48.286;7.812;2022-08-04T11:36:43;37.50;30.70
72206;DHT22;60111;48.286;7.812;2022-08-04T11:39:27;37.60;31.20
72206;DHT22;60111;48.286;7.812;2022-08-04T11:42:10;37.70;30.00
72206;DHT22;60111;48.286;7.812;2022-08-04T11:47:43;38.00;28.80
72206;DHT22;60111;48.286;7.812;2022-08-04T11:50:22;38.10;28.50
72206;DHT22;60111;48.286;7.812;2022-08-04T11:52:56;38.30;28.10
72206;DHT22;60111;48.286;7.812;2022-08-04T11:55:31;38.30;27.50
72206;DHT22;60111;48.286;7.812;2022-08-04T11:58:04;38.30;28.10
72206;DHT22;60111;48.286;7.812;2022-08-04T12:00:40;38.30;29.50
72206;DHT22;60111;48.286;7.812;2022-08-04T12:06:19;38.30;28.60
72206;DHT22;60111;48.286;7.812;2022-08-04T12:08:53;38.40;29.30
72206;DHT22;60111;48.286;7.812;2022-08-04T12:14:32;38.70;28.30
72206;DHT22;60111;48.286;7.812;2022-08-04T12:17:04;38.70;27.70
72206;DHT22;60111;48.286;7.812;2022-08-04T12:22:23;38.60;30.10
72206;DHT22;60111;48.286;7.812;2022-08-04T12:25:04;38.70;29.70
72206;DHT22;60111;48.286;7.812;2022-08-04T12:27:54;38.70;28.80
72206;DHT22;60111;48.286;7.812;2022-08-04T12:30:23;38.70;29.90
72206;DHT22;60111;48.286;7.812;2022-08-04T12:33:03;38.70;29.00
72206;DHT22;60111;48.286;7.812;2022-08-04T12:35:43;38.60;26.80
72206;DHT22;60111;48.286;7.812;2022-08-04T12:38:16;38.50;29.20
72206;DHT22;60111;48.286;7.812;2022-08-04T12:40:57;38.50;28.10
72206;DHT22;60111;48.286;7.812;2022-08-04T12:43:42;38.60;28.80
72206;DHT22;60111;48.286;7.812;2022-08-04T12:46:25;38.70;27.80
72206;DHT22;60111;48.286;7.812;2022-08-04T12:49:02;38.80;28.40
72206;DHT22;60111;48.286;7.812;2022-08-04T12:51:38;38.70;26.90
72206;DHT22;60111;48.286;7.812;2022-08-04T12:54:11;38.70;28.10
72206;DHT22;60111;48.286;7.812;2022-08-04T12:56:43;38.90;28.00
72206;DHT22;60111;48.286;7.812;2022-08-04T12:59:18;39.10;27.40
72206;DHT22;60111;48.286;7.812;2022-08-04T13:01:51;39.10;26.90
72206;DHT22;60111;48.286;7.812;2022-08-04T13:04:26;39.10;28.20
72206;DHT22;60111;48.286;7.812;2022-08-04T13:07:08;39.20;28.20
72206;DHT22;60111;48.286;7.812;2022-08-04T13:09:40;39.20;27.00
72206;DHT22;60111;48.286;7.812;2022-08-04T13:12:19;39.20;27.70
72206;DHT22;60111;48.286;7.812;2022-08-04T13:14:57;39.10;25.80
72206;DHT22;60111;48.286;7.812;2022-08-04T13:17:40;39.10;27.00
72206;DHT22;60111;48.286;7.812;2022-08-04T13:20:03;39.10;26.40
72206;DHT22;60111;48.286;7.812;2022-08-04T13:22:36;39.00;27.60
72206;DHT22;60111;48.286;7.812;2022-08-04T13:25:10;39.00;27.70
72206;DHT22;60111;48.286;7.812;2022-08-04T13:27:43;39.00;28.10
72206;DHT22;60111;48.286;7.812;2022-08-04T13:30:18;39.10;27.90
72206;DHT22;60111;48.286;7.812;2022-08-04T13:32:59;39.10;27.80
72206;DHT22;60111;48.286;7.812;2022-08-04T13:35:28;39.20;27.50
72206;DHT22;60111;48.286;7.812;2022-08-04T13:38:01;39.30;27.40
72206;DHT22;60111;48.286;7.812;2022-08-04T13:40:35;39.30;27.40
72206;DHT22;60111;48.286;7.812;2022-08-04T13:43:21;39.30;27.70
72206;DHT22;60111;48.286;7.812;2022-08-04T13:45:44;39.30;26.30
72206;DHT22;60111;48.286;7.812;2022-08-04T13:48:18;39.10;27.10
72206;DHT22;60111;48.286;7.812;2022-08-04T13:50:51;39.10;26.40
72206;DHT22;60111;48.286;7.812;2022-08-04T13:53:24;39.10;27.90
72206;DHT22;60111;48.286;7.812;2022-08-04T13:55:57;39.10;27.80
72206;DHT22;60111;48.286;7.812;2022-08-04T13:58:33;39.20;26.80
72206;DHT22;60111;48.286;7.812;2022-08-04T14:01:18;39.20;25.90
72206;DHT22;60111;48.286;7.812;2022-08-04T14:03:51;39.20;26.00
72206;DHT22;60111;48.286;7.812;2022-08-04T14:06:34;39.10;26.80
72206;DHT22;60111;48.286;7.812;2022-08-04T14:09:11;39.10;26.50
72206;DHT22;60111;48.286;7.812;2022-08-04T14:11:52;39.10;25.90
72206;DHT22;60111;48.286;7.812;2022-08-04T14:14:28;39.00;26.60
72206;DHT22;60111;48.286;7.812;2022-08-04T14:17:03;39.00;26.60
72206;DHT22;60111;48.286;7.812;2022-08-04T14:19:55;39.00;26.60
72206;DHT22;60111;48.286;7.812;2022-08-04T14:22:30;39.00;28.00
72206;DHT22;60111;48.286;7.812;2022-08-04T14:27:46;39.10;26.30
72206;DHT22;60111;48.286;7.812;2022-08-04T14:30:23;39.10;26.50
72206;DHT22;60111;48.286;7.812;2022-08-04T14:33:02;39.20;27.30
72206;DHT22;60111;48.286;7.812;2022-08-04T14:35:35;39.20;25.60
72206;DHT22;60111;48.286;7.812;2022-08-04T14:38:10;39.40;25.30
72206;DHT22;60111;48.286;7.812;2022-08-04T14:40:43;39.20;26.10
72206;DHT22;60111;48.286;7.812;2022-08-04T14:43:17;39.00;26.10
72206;DHT22;60111;48.286;7.812;2022-08-04T14:45:54;38.90;26.90
72206;DHT22;60111;48.286;7.812;2022-08-04T14:48:28;38.90;26.50
72206;DHT22;60111;48.286;7.812;2022-08-04T14:51:01;38.90;25.90
72206;DHT22;60111;48.286;7.812;2022-08-04T14:53:35;39.00;26.50
72206;DHT22;60111;48.286;7.812;2022-08-04T14:56:08;39.00;25.40
72206;DHT22;60111;48.286;7.812;2022-08-04T14:58:41;39.00;27.00
72206;DHT22;60111;48.286;7.812;2022-08-04T15:01:14;39.00;26.80
72206;DHT22;60111;48.286;7.812;2022-08-04T15:03:48;39.10;23.90
72206;DHT22;60111;48.286;7.812;2022-08-04T15:06:21;38.70;25.40
72206;DHT22;60111;48.286;7.812;2022-08-04T15:09:02;38.70;26.80
72206;DHT22;60111;48.286;7.812;2022-08-04T15:11:35;38.70;25.50
72206;DHT22;60111;48.286;7.812;2022-08-04T15:14:09;38.70;25.80
72206;DHT22;60111;48.286;7.812;2022-08-04T15:16:41;38.70;27.40
72206;DHT22;60111;48.286;7.812;2022-08-04T15:19:14;38.70;25.20
72206;DHT22;60111;48.286;7.812;2022-08-04T15:21:48;38.80;26.40
72206;DHT22;60111;48.286;7.812;2022-08-04T15:24:20;38.80;26.00
72206;DHT22;60111;48.286;7.812;2022-08-04T15:26:55;38.80;26.80
72206;DHT22;60111;48.286;7.812;2022-08-04T15:29:37;38.90;26.20
72206;DHT22;60111;48.286;7.812;2022-08-04T15:32:10;39.00;26.00
72206;DHT22;60111;48.286;7.812;2022-08-04T15:34:49;39.00;25.50
72206;DHT22;60111;48.286;7.812;2022-08-04T15:37:31;39.00;26.90
72206;DHT22;60111;48.286;7.812;2022-08-04T15:40:10;39.00;27.00
72206;DHT22;60111;48.286;7.812;2022-08-04T15:45:25;39.20;26.70
72206;DHT22;60111;48.286;7.812;2022-08-04T15:58:59;39.40;25.80
72206;DHT22;60111;48.286;7.812;2022-08-04T16:01:31;39.30;26.70
72206;DHT22;60111;48.286;7.812;2022-08-04T16:04:19;39.40;26.70
72206;DHT22;60111;48.286;7.812;2022-08-04T16:07:03;39.30;25.90
72206;DHT22;60111;48.286;7.812;2022-08-04T16:09:28;39.30;26.70
72206;DHT22;60111;48.286;7.812;2022-08-04T16:12:00;39.30;26.10
72206;DHT22;60111;48.286;7.812;2022-08-04T16:14:34;39.20;26.30
72206;DHT22;60111;48.286;7.812;2022-08-04T16:17:15;39.30;26.70
72206;DHT22;60111;48.286;7.812;2022-08-04T16:19:56;39.40;26.90
72206;DHT22;60111;48.286;7.812;2022-08-04T16:22:33;39.50;26.70
72206;DHT22;60111;48.286;7.812;2022-08-04T16:25:07;39.60;24.50
72206;DHT22;60111;48.286;7.812;2022-08-04T16:27:43;39.70;26.40
72206;DHT22;60111;48.286;7.812;2022-08-04T16:30:16;39.80;25.20
72206;DHT22;60111;48.286;7.812;2022-08-04T16:32:50;39.80;26.70
72206;DHT22;60111;48.286;7.812;2022-08-04T16:35:26;39.80;24.90
72206;DHT22;60111;48.286;7.812;2022-08-04T16:38:11;39.80;24.70
72206;DHT22;60111;48.286;7.812;2022-08-04T16:40:52;39.90;25.20
72206;DHT22;60111;48.286;7.812;2022-08-04T16:43:21;39.90;25.80
72206;DHT22;60111;48.286;7.812;2022-08-04T16:45:57;39.90;27.00
72206;DHT22;60111;48.286;7.812;2022-08-04T16:48:32;39.90;25.60
72206;DHT22;60111;48.286;7.812;2022-08-04T16:51:07;39.80;25.60
72206;DHT22;60111;48.286;7.812;2022-08-04T16:53:46;39.70;26.10
72206;DHT22;60111;48.286;7.812;2022-08-04T16:56:26;39.70;26.50
72206;DHT22;60111;48.286;7.812;2022-08-04T16:58:55;39.70;26.30
72206;DHT22;60111;48.286;7.812;2022-08-04T17:01:28;39.60;26.40
72206;DHT22;60111;48.286;7.812;2022-08-04T17:04:03;39.60;27.70
72206;DHT22;60111;48.286;7.812;2022-08-04T17:06:43;39.40;25.80
72206;DHT22;60111;48.286;7.812;2022-08-04T17:09:19;39.30;26.70
72206;DHT22;60111;48.286;7.812;2022-08-04T17:11:52;39.40;26.10
72206;DHT22;60111;48.286;7.812;2022-08-04T17:14:27;39.40;25.50
72206;DHT22;60111;48.286;7.812;2022-08-04T17:17:01;39.30;26.80
72206;DHT22;60111;48.286;7.812;2022-08-04T17:19:35;39.40;27.50
72206;DHT22;60111;48.286;7.812;2022-08-04T17:22:08;39.30;27.30
72206;DHT22;60111;48.286;7.812;2022-08-04T17:24:40;39.30;25.80
72206;DHT22;60111;48.286;7.812;2022-08-04T17:27:13;39.10;25.90
72206;DHT22;60111;48.286;7.812;2022-08-04T17:29:45;39.10;26.20
72206;DHT22;60111;48.286;7.812;2022-08-04T17:32:19;39.00;26.40
72206;DHT22;60111;48.286;7.812;2022-08-04T17:34:55;38.90;28.00
72206;DHT22;60111;48.286;7.812;2022-08-04T17:37:28;38.80;26.80
72206;DHT22;60111;48.286;7.812;2022-08-04T17:42:41;38.70;29.90
72206;DHT22;60111;48.286;7.812;2022-08-04T17:45:17;38.70;29.40
72206;DHT22;60111;48.286;7.812;2022-08-04T17:47:51;38.60;27.80
72206;DHT22;60111;48.286;7.812;2022-08-04T17:50:28;38.40;27.20
72206;DHT22;60111;48.286;7.812;2022-08-04T17:53:04;38.30;28.10
72206;DHT22;60111;48.286;7.812;2022-08-04T17:55:42;38.10;28.50
72206;DHT22;60111;48.286;7.812;2022-08-04T17:58:18;37.80;28.20
72206;DHT22;60111;48.286;7.812;2022-08-04T18:00:58;37.50;29.20
72206;DHT22;60111;48.286;7.812;2022-08-04T18:03:31;37.30;29.10
72206;DHT22;60111;48.286;7.812;2022-08-04T18:06:11;37.10;29.60
72206;DHT22;60111;48.286;7.812;2022-08-04T18:08:50;37.00;30.50
72206;DHT22;60111;48.286;7.812;2022-08-04T18:11:19;36.80;30.00
72206;DHT22;60111;48.286;7.812;2022-08-04T18:13:53;36.70;30.90
72206;DHT22;60111;48.286;7.812;2022-08-04T18:16:26;36.40;31.20
72206;DHT22;60111;48.286;7.812;2022-08-04T18:19:13;36.30;32.50
72206;DHT22;60111;48.286;7.812;2022-08-04T18:21:46;36.10;31.90
72206;DHT22;60111;48.286;7.812;2022-08-04T18:24:19;35.90;32.70
72206;DHT22;60111;48.286;7.812;2022-08-04T18:26:52;35.80;32.90
72206;DHT22;60111;48.286;7.812;2022-08-04T18:29:26;35.60;34.00
72206;DHT22;60111;48.286;7.812;2022-08-04T18:31:58;35.50;35.00
72206;DHT22;60111;48.286;7.812;2022-08-04T18:34:31;35.30;35.30
72206;DHT22;60111;48.286;7.812;2022-08-04T18:37:04;35.20;36.20
72206;DHT22;60111;48.286;7.812;2022-08-04T18:39:37;35.00;36.60
72206;DHT22;60111;48.286;7.812;2022-08-04T18:42:10;34.80;37.10
72206;DHT22;60111;48.286;7.812;2022-08-04T18:44:42;34.60;36.90
72206;DHT22;60111;48.286;7.812;2022-08-04T18:47:14;34.60;37.50
72206;DHT22;60111;48.286;7.812;2022-08-04T18:49:47;34.40;37.90
72206;DHT22;60111;48.286;7.812;2022-08-04T18:52:20;34.20;39.10
72206;DHT22;60111;48.286;7.812;2022-08-04T18:54:53;34.10;39.60
72206;DHT22;60111;48.286;7.812;2022-08-04T18:57:28;33.90;40.10
72206;DHT22;60111;48.286;7.812;2022-08-04T19:00:02;33.70;39.20
72206;DHT22;60111;48.286;7.812;2022-08-04T19:02:35;33.60;38.80
72206;DHT22;60111;48.286;7.812;2022-08-04T19:05:08;33.50;38.90
72206;DHT22;60111;48.286;7.812;2022-08-04T19:07:42;33.30;38.50
72206;DHT22;60111;48.286;7.812;2022-08-04T19:10:14;33.20;38.60
72206;DHT22;60111;48.286;7.812;2022-08-04T19:12:47;33.10;38.60
72206;DHT22;60111;48.286;7.812;2022-08-04T19:15:19;33.00;38.90
72206;DHT22;60111;48.286;7.812;2022-08-04T19:17:53;32.90;39.00
72206;DHT22;60111;48.286;7.812;2022-08-04T19:20:27;32.80;40.20
72206;DHT22;60111;48.286;7.812;2022-08-04T19:23:00;32.60;41.00
72206;DHT22;60111;48.286;7.812;2022-08-04T19:25:32;32.50;42.00
72206;DHT22;60111;48.286;7.812;2022-08-04T19:28:07;32.30;45.00
72206;DHT22;60111;48.286;7.812;2022-08-04T19:30:39;32.10;47.90
72206;DHT22;60111;48.286;7.812;2022-08-04T19:33:12;31.80;48.00
72206;DHT22;60111;48.286;7.812;2022-08-04T19:35:45;31.60;50.10
72206;DHT22;60111;48.286;7.812;2022-08-04T19:38:17;31.30;50.90
72206;DHT22;60111;48.286;7.812;2022-08-04T19:40:51;31.10;52.20
72206;DHT22;60111;48.286;7.812;2022-08-04T19:43:24;31.00;52.10
72206;DHT22;60111;48.286;7.812;2022-08-04T19:45:56;30.80;52.30
72206;DHT22;60111;48.286;7.812;2022-08-04T19:48:29;30.60;52.40
72206;DHT22;60111;48.286;7.812;2022-08-04T19:51:02;30.50;54.10
72206;DHT22;60111;48.286;7.812;2022-08-04T19:53:35;30.30;54.40
72206;DHT22;60111;48.286;7.812;2022-08-04T19:56:07;30.20;56.60
72206;DHT22;60111;48.286;7.812;2022-08-04T19:58:40;30.10;56.50
72206;DHT22;60111;48.286;7.812;2022-08-04T20:01:13;29.90;56.30